Steptoe Valley WMA, Nevada Weather observations

Data are for 10 minute period ending at time listed.
 Day   Time   Solar   Ave.   Ave.  Ave.  Vector  Max.   Baro.   Total    
  of    of     Rad.   Air    Rel.  Wind   Wind   Wind  Press.  Precip.   
Year   Day            Temp.  Hum.  Speed  Dir.   Gust                    
2016   (PST)  Kw/m2    F      %     mph   deg.    mph    mb.     in.     
-------------------------------------------------------------------------
 150   12:00   1.06   65.8    26    3.8   294     8.3   804.6    0.00 
 150   12:10   1.00   66.7    24    4.4   336     8.0   804.5    0.00 
 150   12:20   1.07   67.0    26    5.7    14    10.7   804.6    0.00 
 150   12:30   1.01   67.1    24    4.9    58     9.9   804.6    0.00 
 150   12:40   0.92   67.5    25    4.0   357     9.1   804.6    0.00 
 150   12:50   0.90   68.6    23    3.7   128     9.2   804.5    0.00 
 150   13:00   0.94   68.7    22    5.7   157    13.4   804.4    0.00 
 150   13:10   0.78   68.7    23    6.0   158    12.1   804.4    0.00 
 150   13:20   0.87   68.9    24    4.6   171    12.8   804.3    0.00 
 150   13:30   1.03   70.4    23    4.9   187    11.5   804.3    0.00 
 150   13:40   0.48   67.7    29   14.1   168    24.8   804.3    0.00 
 150   13:50   0.40   64.8    31   15.7   168    22.4   804.2    0.00 
 150   14:00   0.55   65.0    33   17.4   176    24.0   804.2    0.00 
 150   14:10   0.21   62.8    34   13.6   175    20.3   804.2    0.00 
 150   14:20   0.16   62.0    33    9.6   176    15.8   804.2    0.00 
 150   14:30   0.14   61.6    36    7.4   206    12.4   804.2    0.00 
 150   14:40   0.21   61.0    39    6.6   179     9.6   804.1    0.00 
 150   14:50   0.57   64.3    32    6.2   253    13.8   804.0    0.00 
 150   15:00   0.59   66.2    29    6.4   344    13.1   804.0    0.00 
 150   15:10   0.49   64.9    30    5.5    21    10.4   803.9    0.00 
 150   15:20   0.42   65.1    28    4.4    20     7.2   803.8    0.00 
 150   15:30   0.48   66.3    26    2.0   314     5.1   803.7    0.00 
 150   15:40   0.41   66.5    27    4.3    26     8.9   803.5    0.00 
 150   15:50   0.35   65.9    28    4.5   352     6.9   803.5    0.00 
 150   16:00   0.25   65.4    28    2.6   346     7.1   803.6    0.00 
 150   16:10   0.29   66.4    26    0.9   235     2.7   803.8    0.00 
 150   16:20   0.22   66.4    28    2.8   196     7.4   803.7    0.00 
 150   16:30   0.19   63.9    36    7.8   179    10.8   803.6    0.00 
 150   16:40   0.15   62.7    39    5.7   181     8.8   803.6    0.00 
 150   16:50   0.13   62.2    37    6.9   173    10.4   803.6    0.00 
 150   17:00   0.13   61.8    39    7.0   175    10.2   803.6    0.00 
 150   17:10   0.15   62.1    38    9.3   172    13.6   803.5    0.00 
 150   17:20   0.19   62.6    38    9.6   170    13.2   803.4    0.00 
 150   17:30   0.14   62.3    39    9.3   165    13.2   803.4    0.00 
 150   17:40   0.09   60.9    42    6.4   168     9.6   803.5    0.00 
 150   17:50   0.07   59.5    45    3.6   167     6.1   803.5    0.00 
 150   18:00   0.07   59.1    42    4.9   156     6.7   803.5    0.00 
 150   18:10   0.10   59.6    41    5.2   156     7.9   803.5    0.00 
 150   18:20   0.04   59.6    42    6.2   134     7.8   803.4    0.00 
 150   18:30   0.03   57.9    46    6.5   132     9.3   803.3    0.00 
 150   18:40   0.02   57.0    49    4.3   133     6.3   803.4    0.00 
 150   18:50   0.01   56.2    50    3.9   140     5.3   803.4    0.00 
 150   19:00   0.01   55.2    51    4.3   136     5.9   803.4    0.00 
 150   19:10   0.00   54.3    51    5.3   141     7.4   803.4    0.00 
 150   19:20   0.00   54.2    49    5.5   147     8.2   803.5    0.00 
 150   19:30   0.00   52.8    53    3.9   156     6.1   803.6    0.00 
 150   19:40   0.00   50.4    59    2.3   164     3.1   803.8    0.00 
 150   19:50   0.00   49.4    60    2.7   156     3.7   803.9    0.00 
 150   20:00   0.00   48.7    63    1.3   184     3.1   804.2    0.00 
 150   20:10   0.00   47.2    67    1.0    11     3.9   804.5    0.00 
 150   20:20   0.00   47.6    66    0.4    64     1.2   804.6    0.00 
 150   20:30   0.00   47.2    65    5.7    83     9.6   804.7    0.00 
 150   20:40   0.00   47.4    64    7.3    80     9.3   804.7    0.00 
 150   20:50   0.00   49.9    58    5.6    60     8.3   804.8    0.00 
 150   21:00   0.00   49.1    60    4.1   358     8.8   805.0    0.00 
 150   21:10   0.00   48.5    62    4.1    14     7.2   805.0    0.00 
 150   21:20   0.00   46.8    67    5.5     1     7.5   805.2    0.00 
 150   21:30   0.00   49.5    61    6.0     2     9.1   805.1    0.00 
 150   21:40   0.00   53.0    53    6.8    14    10.7   805.0    0.00 
 150   21:50   0.00   52.3    55    3.6   326     8.4   805.0    0.00 
 150   22:00   0.00   50.3    61    2.0   220     4.7   805.0    0.00 
 150   22:10   0.00   49.6    63    3.0   171     4.2   805.0    0.00 
 150   22:20   0.00   49.4    64    2.5   163     4.6   804.9    0.00 
 150   22:30   0.00   49.7    63    3.8   154     5.4   804.7    0.00 
 150   22:40   0.00   49.8    64    5.7   174     8.8   804.5    0.00 
 150   22:50   0.00   51.5    58    6.9   185    14.1   804.4    0.00 
 150   23:00   0.00   51.9    57    2.8   162     4.7   804.3    0.00 
 150   23:10   0.00   51.5    58    3.7   153     5.8   804.3    0.00 
 150   23:20   0.00   51.6    57    3.2   126     5.3   804.3    0.00 
 150   23:30   0.00   50.0    62    6.0   108     7.3   804.3    0.00 
 150   23:40   0.00   49.4    63    6.0   122     8.0   804.4    0.00 
 150   23:50   0.00   48.2    66    4.9   166     7.7   804.5    0.00 
 151    0:00   0.00   45.7    72    4.6   173     6.4   804.6    0.00 
 151    0:10   0.00   44.6    75    5.4   166     7.7   804.5    0.00 
 151    0:20   0.00   44.2    75    6.2   146     9.4   804.5    0.00 
 151    0:30   0.00   44.1    74    3.5   159     8.5   804.6    0.00 
 151    0:40   0.00   42.8    78    2.0   153     3.9   804.7    0.00 
 151    0:50   0.00   41.2    80    3.3   158     5.0   804.7    0.00 
 151    1:00   0.00   40.6    81    3.5   168     4.7   804.6    0.00 
 151    1:10   0.00   39.6    84    3.0   195     4.2   804.6    0.00 
 151    1:20   0.00   37.9    85    3.3   190     4.2   804.6    0.00 
 151    1:30   0.00   36.3    87    2.7   174     4.1   804.7    0.00 
 151    1:40   0.00   35.0    88    2.4   173     4.5   804.8    0.00 
 151    1:50   0.00   34.7    89    0.9   137     1.8   804.9    0.00 
 151    2:00   0.00   34.7    89    0.9   317     2.6   804.9    0.00 
 151    2:10   0.00   34.9    90    1.8   147     2.8   804.9    0.00 
 151    2:20   0.00   35.0    90    3.2   170     5.0   804.9    0.00 
 151    2:30   0.00   34.9    90    2.6   178     3.7   804.9    0.00 
 151    2:40   0.00   35.1    90    4.2   158     5.6   805.0    0.00 
 151    2:50   0.00   36.7    87    2.3   176     4.7   805.1    0.00 
 151    3:00   0.00   35.1    86    0.5     3     1.5   805.2    0.00 
 151    3:10   0.00   34.2    88    1.1   177     3.4   805.2    0.00 
 151    3:20   0.00   32.6    89    1.6   170     2.9   805.2    0.00 
 151    3:30   0.00   32.7    91    1.8   182     2.8   805.3    0.00 
 151    3:40   0.00   32.6    91    1.6   171     2.9   805.3    0.00 
 151    3:50   0.00   31.9    91    3.7   168     5.3   805.3    0.00 
 151    4:00   0.00   32.9    93    4.2   166     5.9   805.3    0.00 
 151    4:10   0.00   33.2    93    3.6   173     5.6   805.4    0.00 
 151    4:20   0.00   34.9    94    4.6   172     6.6   805.4    0.00 
 151    4:30   0.01   36.0    92    3.5   158     5.8   805.5    0.00 
 151    4:40   0.01   35.6    90    3.6   143     6.1   805.6    0.00 
 151    4:50   0.02   36.2    90    4.3   154     6.9   805.6    0.00 
 151    5:00   0.02   36.2    88    3.2   168     5.6   805.6    0.00 
 151    5:10   0.02   35.8    90    3.2   177     4.6   805.6    0.00 
 151    5:20   0.03   37.2    90    3.6   170     5.3   805.6    0.00 
 151    5:30   0.12   38.3    90    4.6   173     7.2   805.6    0.00 
 151    5:40   0.18   41.3    85    6.7   186     9.1   805.6    0.00 
 151    5:50   0.21   42.5    80    7.0   180     9.5   805.6    0.00 
 151    6:00   0.24   43.9    77    6.9   179     9.9   805.7    0.00 
 151    6:10   0.28   45.4    72    7.3   185     9.2   805.6    0.00 
 151    6:20   0.31   47.2    69    6.4   182     9.0   805.7    0.00 
 151    6:30   0.34   49.0    64    6.5   157     9.6   805.8    0.00 
 151    6:40   0.38   50.8    60    6.4   159     8.9   805.8    0.00 
 151    6:50   0.41   52.8    57    5.5   168     7.9   805.7    0.00 
 151    7:00   0.44   54.0    55    5.1   174     7.0   805.6    0.00 
 151    7:10   0.47   55.5    54    4.6   177     6.6   805.5    0.00 
 151    7:20   0.51   57.2    50    3.2   170     5.0   805.5    0.00 
 151    7:30   0.54   59.3    46    2.4   164     4.5   805.3    0.00 
 151    7:40   0.57   61.4    42    1.5   181     3.6   805.2    0.00 
 151    7:50   0.61   62.8    40    0.8   162     2.0   805.2    0.00 
 151    8:00   0.64   64.2    36    0.9   149     2.9   805.2    0.00 
 151    8:10   0.67   65.4    34    0.7    84     2.2   805.1    0.00 
 151    8:20   0.70   65.4    36    1.6    47     4.5   805.1    0.00 
 151    8:30   0.73   65.7    36    2.7    12     8.3   805.1    0.00 
 151    8:40   0.75   65.7    33    4.8   350     8.8   805.1    0.00 
 151    8:50   0.78   65.9    32    5.1   341     8.7   805.1    0.00 
 151    9:00   0.81   66.5    32    5.5   342    11.5   805.1    0.00 
 151    9:10   0.83   66.6    31    5.0   348    11.2   805.2    0.00 
 151    9:20   0.85   67.1    28    5.4   358    11.2   805.2    0.00 
 151    9:30   0.88   67.6    28    6.5     7    13.0   805.3    0.00 
 151    9:40   0.90   67.9    25    7.5    15    12.8   805.3    0.00 
 151    9:50   0.92   68.4    24    6.7   345    13.3   805.3    0.00 
 151   10:00   0.92   68.4    24    5.1     0    12.5   805.3    0.00 
 151   10:10   0.93   68.8    24    8.8     6    17.9   805.2    0.00 
 151   10:20   0.95   69.2    25    6.4     9    11.0   805.2    0.00 
 151   10:30   1.00   69.8    25    7.2   360    14.7   805.2    0.00 
 151   10:40   0.72   68.9    24    6.8    29    14.2   805.2    0.00 
 151   10:50   0.86   68.8    24    7.5    10    15.9   805.2    0.00 
 151   11:00   0.89   69.5    25    8.7   341    15.3   805.0    0.00 
 151   11:10   0.82   69.7    24    8.6   346    16.5   805.0    0.00 
 151   11:20   1.03   70.1    24    8.7   358    16.3   804.9    0.00 
 151   11:30   0.91   70.1    22    8.9   359    14.3   804.9    0.00 
 151   11:40   0.98   69.5    22    6.6    20    20.0   804.9    0.00 
 151   11:50   1.02   71.0    22    9.5   351    16.9   804.9    0.00 

Return to Steptoe Valley WMA graphs page.


Western Regional Climate Center,wrcc@dri.edu